sensor_id;sensor_type;location;lat;lon;timestamp;P1;durP1;ratioP1;P2;durP2;ratioP2
21876;SDS011;11103;43.788;23.710;2023-04-29T00:00:18;11.50;;;7.47;;
21876;SDS011;11103;43.788;23.710;2023-04-29T00:02:44;12.50;;;7.27;;
21876;SDS011;11103;43.788;23.710;2023-04-29T00:05:10;10.73;;;7.37;;
21876;SDS011;11103;43.788;23.710;2023-04-29T00:07:35;11.80;;;7.63;;
21876;SDS011;11103;43.788;23.710;2023-04-29T00:10:01;11.07;;;7.83;;
21876;SDS011;11103;43.788;23.710;2023-04-29T00:12:27;9.87;;;6.87;;
21876;SDS011;11103;43.788;23.710;2023-04-29T00:14:54;12.57;;;7.10;;
21876;SDS011;11103;43.788;23.710;2023-04-29T00:17:19;13.70;;;7.50;;
21876;SDS011;11103;43.788;23.710;2023-04-29T00:19:45;13.47;;;8.13;;
21876;SDS011;11103;43.788;23.710;2023-04-29T00:22:11;18.73;;;7.77;;
21876;SDS011;11103;43.788;23.710;2023-04-29T00:24:36;12.17;;;8.07;;
21876;SDS011;11103;43.788;23.710;2023-04-29T00:27:01;11.50;;;7.57;;
21876;SDS011;11103;43.788;23.710;2023-04-29T00:29:27;15.43;;;8.40;;
21876;SDS011;11103;43.788;23.710;2023-04-29T00:31:52;11.13;;;7.63;;
21876;SDS011;11103;43.788;23.710;2023-04-29T00:34:18;11.17;;;8.27;;
21876;SDS011;11103;43.788;23.710;2023-04-29T00:36:44;12.17;;;8.07;;
21876;SDS011;11103;43.788;23.710;2023-04-29T00:39:09;11.20;;;8.13;;
21876;SDS011;11103;43.788;23.710;2023-04-29T00:41:35;14.13;;;9.13;;
21876;SDS011;11103;43.788;23.710;2023-04-29T00:44:01;12.33;;;7.97;;
21876;SDS011;11103;43.788;23.710;2023-04-29T00:46:26;20.67;;;8.57;;
21876;SDS011;11103;43.788;23.710;2023-04-29T00:48:52;10.63;;;7.50;;
21876;SDS011;11103;43.788;23.710;2023-04-29T00:51:17;12.13;;;8.13;;
21876;SDS011;11103;43.788;23.710;2023-04-29T00:53:43;10.47;;;7.80;;
21876;SDS011;11103;43.788;23.710;2023-04-29T00:56:09;12.13;;;8.17;;
21876;SDS011;11103;43.788;23.710;2023-04-29T00:58:35;12.90;;;7.70;;
21876;SDS011;11103;43.788;23.710;2023-04-29T01:01:03;9.80;;;8.30;;
21876;SDS011;11103;43.788;23.710;2023-04-29T01:03:31;12.83;;;7.67;;
21876;SDS011;11103;43.788;23.710;2023-04-29T01:06:03;11.07;;;7.97;;
21876;SDS011;11103;43.788;23.710;2023-04-29T01:09:00;11.60;;;8.03;;
21876;SDS011;11103;43.788;23.710;2023-04-29T01:11:34;12.90;;;8.23;;
21876;SDS011;11103;43.788;23.710;2023-04-29T01:14:03;11.37;;;8.13;;
21876;SDS011;11103;43.788;23.710;2023-04-29T01:16:33;13.53;;;7.70;;
21876;SDS011;11103;43.788;23.710;2023-04-29T01:19:09;13.70;;;7.33;;
21876;SDS011;11103;43.788;23.710;2023-04-29T01:21:57;12.33;;;7.77;;
21876;SDS011;11103;43.788;23.710;2023-04-29T01:24:23;12.47;;;7.57;;
21876;SDS011;11103;43.788;23.710;2023-04-29T01:26:54;10.50;;;8.23;;
21876;SDS011;11103;43.788;23.710;2023-04-29T01:32:40;11.60;;;7.30;;
21876;SDS011;11103;43.788;23.710;2023-04-29T01:40:42;10.50;;;7.90;;
21876;SDS011;11103;43.788;23.710;2023-04-29T01:43:42;9.60;;;7.33;;
21876;SDS011;11103;43.788;23.710;2023-04-29T01:46:11;11.70;;;7.73;;
21876;SDS011;11103;43.788;23.710;2023-04-29T01:48:40;12.13;;;7.90;;
21876;SDS011;11103;43.788;23.710;2023-04-29T01:51:06;13.60;;;7.43;;
21876;SDS011;11103;43.788;23.710;2023-04-29T01:53:31;9.83;;;7.57;;
21876;SDS011;11103;43.788;23.710;2023-04-29T01:55:57;10.90;;;7.73;;
21876;SDS011;11103;43.788;23.710;2023-04-29T01:58:22;10.60;;;7.83;;
21876;SDS011;11103;43.788;23.710;2023-04-29T02:00:48;9.17;;;7.20;;
21876;SDS011;11103;43.788;23.710;2023-04-29T02:03:13;11.57;;;8.17;;
21876;SDS011;11103;43.788;23.710;2023-04-29T02:05:39;12.80;;;8.80;;
21876;SDS011;11103;43.788;23.710;2023-04-29T02:08:04;16.20;;;8.73;;
21876;SDS011;11103;43.788;23.710;2023-04-29T02:10:31;13.97;;;8.03;;
21876;SDS011;11103;43.788;23.710;2023-04-29T02:12:57;12.53;;;8.00;;
21876;SDS011;11103;43.788;23.710;2023-04-29T02:15:25;16.03;;;8.60;;
21876;SDS011;11103;43.788;23.710;2023-04-29T02:17:51;13.63;;;8.80;;
21876;SDS011;11103;43.788;23.710;2023-04-29T02:20:16;12.33;;;7.93;;
21876;SDS011;11103;43.788;23.710;2023-04-29T02:22:42;12.73;;;8.00;;
21876;SDS011;11103;43.788;23.710;2023-04-29T02:25:08;11.33;;;7.97;;
21876;SDS011;11103;43.788;23.710;2023-04-29T02:27:33;10.73;;;8.70;;
21876;SDS011;11103;43.788;23.710;2023-04-29T02:29:59;16.90;;;10.00;;
21876;SDS011;11103;43.788;23.710;2023-04-29T02:32:24;14.73;;;9.23;;
21876;SDS011;11103;43.788;23.710;2023-04-29T02:34:49;13.87;;;9.50;;
21876;SDS011;11103;43.788;23.710;2023-04-29T02:37:15;15.60;;;8.47;;
21876;SDS011;11103;43.788;23.710;2023-04-29T02:39:41;11.03;;;8.13;;
21876;SDS011;11103;43.788;23.710;2023-04-29T02:42:06;11.50;;;8.47;;
21876;SDS011;11103;43.788;23.710;2023-04-29T02:44:32;12.73;;;8.53;;
21876;SDS011;11103;43.788;23.710;2023-04-29T02:46:57;12.83;;;7.73;;
21876;SDS011;11103;43.788;23.710;2023-04-29T02:49:22;13.77;;;8.67;;
21876;SDS011;11103;43.788;23.710;2023-04-29T02:51:48;10.43;;;8.03;;
21876;SDS011;11103;43.788;23.710;2023-04-29T02:54:16;9.90;;;7.93;;
21876;SDS011;11103;43.788;23.710;2023-04-29T02:56:42;9.63;;;7.53;;
21876;SDS011;11103;43.788;23.710;2023-04-29T02:59:08;11.83;;;8.40;;
21876;SDS011;11103;43.788;23.710;2023-04-29T03:01:34;11.63;;;8.30;;
21876;SDS011;11103;43.788;23.710;2023-04-29T03:03:59;12.63;;;8.37;;
21876;SDS011;11103;43.788;23.710;2023-04-29T03:06:25;10.27;;;8.13;;
21876;SDS011;11103;43.788;23.710;2023-04-29T03:08:51;11.50;;;7.70;;
21876;SDS011;11103;43.788;23.710;2023-04-29T03:11:17;17.67;;;8.90;;
21876;SDS011;11103;43.788;23.710;2023-04-29T03:13:43;11.30;;;8.70;;
21876;SDS011;11103;43.788;23.710;2023-04-29T03:16:10;15.73;;;8.87;;
21876;SDS011;11103;43.788;23.710;2023-04-29T03:18:37;13.47;;;8.27;;
21876;SDS011;11103;43.788;23.710;2023-04-29T03:21:03;11.97;;;9.07;;
21876;SDS011;11103;43.788;23.710;2023-04-29T03:23:28;16.00;;;10.23;;
21876;SDS011;11103;43.788;23.710;2023-04-29T03:25:54;17.27;;;9.63;;
21876;SDS011;11103;43.788;23.710;2023-04-29T03:28:20;12.87;;;9.77;;
21876;SDS011;11103;43.788;23.710;2023-04-29T03:30:45;12.33;;;9.63;;
21876;SDS011;11103;43.788;23.710;2023-04-29T03:33:10;16.40;;;9.93;;
21876;SDS011;11103;43.788;23.710;2023-04-29T03:35:36;18.40;;;9.63;;
21876;SDS011;11103;43.788;23.710;2023-04-29T03:38:01;16.07;;;10.50;;
21876;SDS011;11103;43.788;23.710;2023-04-29T03:40:27;18.57;;;10.23;;
21876;SDS011;11103;43.788;23.710;2023-04-29T03:42:52;15.03;;;10.30;;
21876;SDS011;11103;43.788;23.710;2023-04-29T03:45:17;13.77;;;9.67;;
21876;SDS011;11103;43.788;23.710;2023-04-29T03:47:43;12.10;;;9.67;;
21876;SDS011;11103;43.788;23.710;2023-04-29T03:50:08;13.50;;;9.07;;
21876;SDS011;11103;43.788;23.710;2023-04-29T03:52:34;14.57;;;9.10;;
21876;SDS011;11103;43.788;23.710;2023-04-29T03:55:02;13.00;;;9.60;;
21876;SDS011;11103;43.788;23.710;2023-04-29T03:57:28;17.37;;;9.97;;
21876;SDS011;11103;43.788;23.710;2023-04-29T03:59:53;18.00;;;10.53;;
21876;SDS011;11103;43.788;23.710;2023-04-29T04:02:19;13.47;;;9.87;;
21876;SDS011;11103;43.788;23.710;2023-04-29T04:04:45;14.23;;;9.00;;
21876;SDS011;11103;43.788;23.710;2023-04-29T04:07:10;15.77;;;10.20;;
21876;SDS011;11103;43.788;23.710;2023-04-29T04:09:36;11.83;;;9.73;;
21876;SDS011;11103;43.788;23.710;2023-04-29T04:12:02;13.40;;;10.53;;
21876;SDS011;11103;43.788;23.710;2023-04-29T04:14:28;13.30;;;10.43;;
21876;SDS011;11103;43.788;23.710;2023-04-29T04:16:54;14.57;;;10.17;;
21876;SDS011;11103;43.788;23.710;2023-04-29T04:19:19;16.70;;;11.20;;
21876;SDS011;11103;43.788;23.710;2023-04-29T04:21:45;18.33;;;10.07;;
21876;SDS011;11103;43.788;23.710;2023-04-29T04:24:10;19.07;;;10.47;;
21876;SDS011;11103;43.788;23.710;2023-04-29T04:26:36;13.67;;;10.23;;
21876;SDS011;11103;43.788;23.710;2023-04-29T04:29:01;14.73;;;10.70;;
21876;SDS011;11103;43.788;23.710;2023-04-29T04:31:27;18.13;;;11.40;;
21876;SDS011;11103;43.788;23.710;2023-04-29T04:33:53;19.40;;;11.63;;
21876;SDS011;11103;43.788;23.710;2023-04-29T04:36:19;16.83;;;11.47;;
21876;SDS011;11103;43.788;23.710;2023-04-29T04:38:45;15.17;;;11.13;;
21876;SDS011;11103;43.788;23.710;2023-04-29T04:41:10;13.83;;;11.10;;
21876;SDS011;11103;43.788;23.710;2023-04-29T04:43:36;14.67;;;10.73;;
21876;SDS011;11103;43.788;23.710;2023-04-29T04:46:11;18.60;;;11.73;;
21876;SDS011;11103;43.788;23.710;2023-04-29T04:48:38;18.50;;;11.57;;
21876;SDS011;11103;43.788;23.710;2023-04-29T04:51:10;17.77;;;10.60;;
21876;SDS011;11103;43.788;23.710;2023-04-29T04:53:37;16.47;;;11.07;;
21876;SDS011;11103;43.788;23.710;2023-04-29T04:56:03;20.13;;;11.57;;
21876;SDS011;11103;43.788;23.710;2023-04-29T04:58:29;14.80;;;11.30;;
21876;SDS011;11103;43.788;23.710;2023-04-29T05:00:56;14.17;;;10.77;;
21876;SDS011;11103;43.788;23.710;2023-04-29T05:03:21;16.90;;;11.47;;
21876;SDS011;11103;43.788;23.710;2023-04-29T05:05:52;17.53;;;11.53;;
21876;SDS011;11103;43.788;23.710;2023-04-29T05:08:18;14.50;;;11.50;;
21876;SDS011;11103;43.788;23.710;2023-04-29T05:10:44;12.70;;;10.73;;
21876;SDS011;11103;43.788;23.710;2023-04-29T05:13:09;14.70;;;10.97;;
21876;SDS011;11103;43.788;23.710;2023-04-29T05:15:35;17.40;;;11.93;;
21876;SDS011;11103;43.788;23.710;2023-04-29T05:18:00;23.60;;;14.00;;
21876;SDS011;11103;43.788;23.710;2023-04-29T05:20:25;35.33;;;21.87;;
21876;SDS011;11103;43.788;23.710;2023-04-29T05:22:51;56.03;;;28.47;;
21876;SDS011;11103;43.788;23.710;2023-04-29T05:25:16;40.90;;;22.17;;
21876;SDS011;11103;43.788;23.710;2023-04-29T05:27:42;31.33;;;18.87;;
21876;SDS011;11103;43.788;23.710;2023-04-29T05:30:07;34.10;;;18.70;;
21876;SDS011;11103;43.788;23.710;2023-04-29T05:32:33;30.90;;;17.87;;
21876;SDS011;11103;43.788;23.710;2023-04-29T05:34:58;27.17;;;16.53;;
21876;SDS011;11103;43.788;23.710;2023-04-29T05:37:24;25.23;;;16.33;;
21876;SDS011;11103;43.788;23.710;2023-04-29T05:39:54;26.87;;;16.37;;
21876;SDS011;11103;43.788;23.710;2023-04-29T05:42:20;22.60;;;14.80;;
21876;SDS011;11103;43.788;23.710;2023-04-29T05:44:45;24.87;;;14.57;;
21876;SDS011;11103;43.788;23.710;2023-04-29T05:47:11;21.70;;;12.67;;
21876;SDS011;11103;43.788;23.710;2023-04-29T05:49:36;22.47;;;11.47;;
21876;SDS011;11103;43.788;23.710;2023-04-29T05:52:03;12.97;;;9.63;;
21876;SDS011;11103;43.788;23.710;2023-04-29T05:54:30;15.20;;;10.17;;
21876;SDS011;11103;43.788;23.710;2023-04-29T05:56:56;11.57;;;9.63;;
21876;SDS011;11103;43.788;23.710;2023-04-29T05:59:22;15.60;;;10.20;;
21876;SDS011;11103;43.788;23.710;2023-04-29T06:01:47;17.17;;;9.80;;
21876;SDS011;11103;43.788;23.710;2023-04-29T06:04:12;12.30;;;8.50;;
21876;SDS011;11103;43.788;23.710;2023-04-29T06:06:38;12.50;;;9.07;;
21876;SDS011;11103;43.788;23.710;2023-04-29T06:09:03;11.37;;;8.90;;
21876;SDS011;11103;43.788;23.710;2023-04-29T06:11:29;12.87;;;9.30;;
21876;SDS011;11103;43.788;23.710;2023-04-29T06:13:55;14.93;;;9.00;;
21876;SDS011;11103;43.788;23.710;2023-04-29T06:16:21;16.43;;;8.87;;
21876;SDS011;11103;43.788;23.710;2023-04-29T06:18:47;15.10;;;9.60;;
21876;SDS011;11103;43.788;23.710;2023-04-29T06:21:12;12.00;;;9.47;;
21876;SDS011;11103;43.788;23.710;2023-04-29T06:23:38;13.10;;;9.83;;
21876;SDS011;11103;43.788;23.710;2023-04-29T06:26:04;20.80;;;10.10;;
21876;SDS011;11103;43.788;23.710;2023-04-29T06:28:30;15.13;;;9.00;;
21876;SDS011;11103;43.788;23.710;2023-04-29T06:30:56;49.00;;;10.67;;
21876;SDS011;11103;43.788;23.710;2023-04-29T06:33:21;14.23;;;9.23;;
21876;SDS011;11103;43.788;23.710;2023-04-29T06:35:46;14.07;;;8.67;;
21876;SDS011;11103;43.788;23.710;2023-04-29T06:38:12;10.67;;;8.00;;
21876;SDS011;11103;43.788;23.710;2023-04-29T06:40:37;8.67;;;7.47;;
21876;SDS011;11103;43.788;23.710;2023-04-29T06:43:03;11.77;;;7.87;;
21876;SDS011;11103;43.788;23.710;2023-04-29T06:45:28;12.93;;;7.80;;
21876;SDS011;11103;43.788;23.710;2023-04-29T06:47:54;9.50;;;8.27;;
21876;SDS011;11103;43.788;23.710;2023-04-29T06:50:19;15.97;;;8.50;;
21876;SDS011;11103;43.788;23.710;2023-04-29T06:52:45;12.17;;;7.93;;
21876;SDS011;11103;43.788;23.710;2023-04-29T06:55:10;12.43;;;8.10;;
21876;SDS011;11103;43.788;23.710;2023-04-29T06:57:36;20.03;;;8.43;;
21876;SDS011;11103;43.788;23.710;2023-04-29T07:00:02;12.53;;;8.40;;
21876;SDS011;11103;43.788;23.710;2023-04-29T07:02:28;10.33;;;7.77;;
21876;SDS011;11103;43.788;23.710;2023-04-29T07:04:53;13.17;;;7.60;;
21876;SDS011;11103;43.788;23.710;2023-04-29T07:07:19;12.77;;;7.50;;
21876;SDS011;11103;43.788;23.710;2023-04-29T07:09:44;19.67;;;7.60;;
21876;SDS011;11103;43.788;23.710;2023-04-29T07:12:10;16.73;;;8.17;;
21876;SDS011;11103;43.788;23.710;2023-04-29T07:14:35;11.00;;;6.93;;
21876;SDS011;11103;43.788;23.710;2023-04-29T07:17:01;13.77;;;7.13;;
21876;SDS011;11103;43.788;23.710;2023-04-29T07:19:27;9.50;;;6.60;;
21876;SDS011;11103;43.788;23.710;2023-04-29T07:21:52;11.20;;;6.60;;
21876;SDS011;11103;43.788;23.710;2023-04-29T07:24:17;10.13;;;6.33;;
21876;SDS011;11103;43.788;23.710;2023-04-29T07:26:43;9.27;;;6.43;;
21876;SDS011;11103;43.788;23.710;2023-04-29T07:29:09;9.47;;;7.60;;
21876;SDS011;11103;43.788;23.710;2023-04-29T07:31:35;9.97;;;6.87;;
21876;SDS011;11103;43.788;23.710;2023-04-29T07:34:00;11.50;;;7.10;;
21876;SDS011;11103;43.788;23.710;2023-04-29T07:36:26;9.00;;;6.77;;
21876;SDS011;11103;43.788;23.710;2023-04-29T07:38:52;9.23;;;6.70;;
21876;SDS011;11103;43.788;23.710;2023-04-29T07:41:18;9.77;;;6.43;;
21876;SDS011;11103;43.788;23.710;2023-04-29T07:43:43;9.20;;;6.27;;
21876;SDS011;11103;43.788;23.710;2023-04-29T07:46:09;9.17;;;6.27;;
21876;SDS011;11103;43.788;23.710;2023-04-29T07:48:37;9.20;;;6.37;;
21876;SDS011;11103;43.788;23.710;2023-04-29T07:51:04;10.47;;;7.10;;
21876;SDS011;11103;43.788;23.710;2023-04-29T07:53:30;9.70;;;6.03;;
21876;SDS011;11103;43.788;23.710;2023-04-29T07:55:56;7.30;;;5.90;;
21876;SDS011;11103;43.788;23.710;2023-04-29T07:58:21;7.47;;;6.13;;
21876;SDS011;11103;43.788;23.710;2023-04-29T08:00:47;10.67;;;5.60;;
21876;SDS011;11103;43.788;23.710;2023-04-29T08:03:12;10.43;;;5.87;;
21876;SDS011;11103;43.788;23.710;2023-04-29T08:05:38;9.40;;;5.90;;
21876;SDS011;11103;43.788;23.710;2023-04-29T08:08:03;7.97;;;5.70;;
21876;SDS011;11103;43.788;23.710;2023-04-29T08:10:29;10.63;;;5.47;;
21876;SDS011;11103;43.788;23.710;2023-04-29T08:12:55;8.63;;;5.13;;
21876;SDS011;11103;43.788;23.710;2023-04-29T08:15:20;8.83;;;5.37;;
21876;SDS011;11103;43.788;23.710;2023-04-29T08:17:46;8.03;;;5.80;;
21876;SDS011;11103;43.788;23.710;2023-04-29T08:20:11;7.73;;;5.63;;
21876;SDS011;11103;43.788;23.710;2023-04-29T08:22:37;9.83;;;5.00;;
21876;SDS011;11103;43.788;23.710;2023-04-29T08:25:03;8.13;;;5.77;;
21876;SDS011;11103;43.788;23.710;2023-04-29T08:27:29;8.93;;;4.70;;
21876;SDS011;11103;43.788;23.710;2023-04-29T08:29:55;12.90;;;5.40;;
21876;SDS011;11103;43.788;23.710;2023-04-29T08:32:20;11.37;;;5.67;;
21876;SDS011;11103;43.788;23.710;2023-04-29T08:34:46;6.00;;;5.30;;
21876;SDS011;11103;43.788;23.710;2023-04-29T08:37:12;8.27;;;5.70;;
21876;SDS011;11103;43.788;23.710;2023-04-29T08:39:37;7.33;;;5.33;;
21876;SDS011;11103;43.788;23.710;2023-04-29T08:42:06;9.07;;;5.50;;
21876;SDS011;11103;43.788;23.710;2023-04-29T08:44:33;11.43;;;7.60;;
21876;SDS011;11103;43.788;23.710;2023-04-29T08:46:59;6.93;;;5.20;;
21876;SDS011;11103;43.788;23.710;2023-04-29T08:49:26;16.73;;;11.40;;
21876;SDS011;11103;43.788;23.710;2023-04-29T08:51:52;24.10;;;14.07;;
21876;SDS011;11103;43.788;23.710;2023-04-29T08:54:18;22.43;;;13.93;;
21876;SDS011;11103;43.788;23.710;2023-04-29T08:56:44;19.80;;;6.93;;
21876;SDS011;11103;43.788;23.710;2023-04-29T08:59:14;8.80;;;4.93;;
21876;SDS011;11103;43.788;23.710;2023-04-29T09:01:41;10.30;;;5.90;;
21876;SDS011;11103;43.788;23.710;2023-04-29T09:06:57;6.53;;;5.17;;
21876;SDS011;11103;43.788;23.710;2023-04-29T09:09:24;8.67;;;4.70;;
21876;SDS011;11103;43.788;23.710;2023-04-29T09:11:50;13.27;;;8.23;;
21876;SDS011;11103;43.788;23.710;2023-04-29T09:14:16;9.23;;;5.10;;
21876;SDS011;11103;43.788;23.710;2023-04-29T09:16:46;8.77;;;4.83;;
21876;SDS011;11103;43.788;23.710;2023-04-29T09:19:23;9.77;;;4.80;;
21876;SDS011;11103;43.788;23.710;2023-04-29T09:21:56;8.30;;;5.20;;
21876;SDS011;11103;43.788;23.710;2023-04-29T09:24:28;10.67;;;4.87;;
21876;SDS011;11103;43.788;23.710;2023-04-29T09:26:55;6.60;;;4.63;;
21876;SDS011;11103;43.788;23.710;2023-04-29T09:29:22;11.87;;;4.80;;
21876;SDS011;11103;43.788;23.710;2023-04-29T09:31:49;7.30;;;5.07;;
21876;SDS011;11103;43.788;23.710;2023-04-29T09:34:29;6.40;;;4.83;;
21876;SDS011;11103;43.788;23.710;2023-04-29T09:36:56;8.30;;;5.03;;
21876;SDS011;11103;43.788;23.710;2023-04-29T09:39:23;8.67;;;4.60;;
21876;SDS011;11103;43.788;23.710;2023-04-29T09:44:14;8.43;;;5.07;;
21876;SDS011;11103;43.788;23.710;2023-04-29T09:46:40;5.60;;;4.20;;
21876;SDS011;11103;43.788;23.710;2023-04-29T09:52:00;14.20;;;7.77;;
21876;SDS011;11103;43.788;23.710;2023-04-29T09:54:29;14.30;;;8.07;;
21876;SDS011;11103;43.788;23.710;2023-04-29T09:56:56;9.13;;;5.97;;
21876;SDS011;11103;43.788;23.710;2023-04-29T09:59:23;25.10;;;13.73;;
21876;SDS011;11103;43.788;23.710;2023-04-29T10:01:50;51.97;;;33.97;;
21876;SDS011;11103;43.788;23.710;2023-04-29T10:04:17;42.57;;;28.57;;
21876;SDS011;11103;43.788;23.710;2023-04-29T10:06:44;25.97;;;18.97;;
21876;SDS011;11103;43.788;23.710;2023-04-29T10:09:12;18.00;;;7.03;;
21876;SDS011;11103;43.788;23.710;2023-04-29T10:11:45;6.10;;;4.33;;
21876;SDS011;11103;43.788;23.710;2023-04-29T10:14:22;10.77;;;4.63;;
21876;SDS011;11103;43.788;23.710;2023-04-29T10:16:53;8.20;;;4.47;;
21876;SDS011;11103;43.788;23.710;2023-04-29T10:19:38;6.47;;;4.40;;
21876;SDS011;11103;43.788;23.710;2023-04-29T10:22:17;8.20;;;4.67;;
21876;SDS011;11103;43.788;23.710;2023-04-29T10:25:00;8.40;;;4.33;;
21876;SDS011;11103;43.788;23.710;2023-04-29T10:27:26;17.10;;;5.80;;
21876;SDS011;11103;43.788;23.710;2023-04-29T10:29:53;10.10;;;5.47;;
21876;SDS011;11103;43.788;23.710;2023-04-29T10:32:22;52.67;;;28.13;;
21876;SDS011;11103;43.788;23.710;2023-04-29T10:34:49;6.90;;;4.60;;
21876;SDS011;11103;43.788;23.710;2023-04-29T10:37:16;51.27;;;34.07;;
21876;SDS011;11103;43.788;23.710;2023-04-29T10:39:56;18.93;;;9.53;;
21876;SDS011;11103;43.788;23.710;2023-04-29T10:42:36;7.80;;;4.47;;
21876;SDS011;11103;43.788;23.710;2023-04-29T10:53:03;24.03;;;5.57;;
21876;SDS011;11103;43.788;23.710;2023-04-29T10:55:29;10.43;;;4.67;;
21876;SDS011;11103;43.788;23.710;2023-04-29T10:57:55;37.00;;;19.53;;
21876;SDS011;11103;43.788;23.710;2023-04-29T11:00:23;14.33;;;8.13;;
21876;SDS011;11103;43.788;23.710;2023-04-29T11:02:55;25.23;;;13.97;;
21876;SDS011;11103;43.788;23.710;2023-04-29T11:05:30;30.93;;;21.17;;
21876;SDS011;11103;43.788;23.710;2023-04-29T11:08:11;15.00;;;10.23;;
21876;SDS011;11103;43.788;23.710;2023-04-29T11:10:40;8.17;;;4.37;;
21876;SDS011;11103;43.788;23.710;2023-04-29T11:13:20;6.23;;;4.10;;
21876;SDS011;11103;43.788;23.710;2023-04-29T11:15:50;8.23;;;4.30;;
21876;SDS011;11103;43.788;23.710;2023-04-29T11:18:27;6.07;;;3.70;;
21876;SDS011;11103;43.788;23.710;2023-04-29T11:23:37;6.67;;;4.20;;
21876;SDS011;11103;43.788;23.710;2023-04-29T11:26:05;6.33;;;4.23;;
21876;SDS011;11103;43.788;23.710;2023-04-29T11:28:31;9.97;;;4.63;;
21876;SDS011;11103;43.788;23.710;2023-04-29T11:30:57;13.23;;;4.93;;
21876;SDS011;11103;43.788;23.710;2023-04-29T11:33:23;11.90;;;6.83;;
21876;SDS011;11103;43.788;23.710;2023-04-29T11:35:51;15.10;;;7.97;;
21876;SDS011;11103;43.788;23.710;2023-04-29T11:38:22;15.70;;;8.90;;
21876;SDS011;11103;43.788;23.710;2023-04-29T11:40:51;16.37;;;9.03;;
21876;SDS011;11103;43.788;23.710;2023-04-29T11:43:18;17.63;;;9.40;;
21876;SDS011;11103;43.788;23.710;2023-04-29T11:45:44;12.13;;;8.27;;
21876;SDS011;11103;43.788;23.710;2023-04-29T11:48:17;17.23;;;10.10;;
21876;SDS011;11103;43.788;23.710;2023-04-29T11:50:47;26.53;;;15.03;;
21876;SDS011;11103;43.788;23.710;2023-04-29T11:53:14;33.00;;;17.83;;
21876;SDS011;11103;43.788;23.710;2023-04-29T11:55:43;31.67;;;19.47;;
21876;SDS011;11103;43.788;23.710;2023-04-29T11:58:10;37.83;;;18.70;;
21876;SDS011;11103;43.788;23.710;2023-04-29T12:00:36;31.13;;;17.33;;
21876;SDS011;11103;43.788;23.710;2023-04-29T12:03:06;32.60;;;17.33;;
21876;SDS011;11103;43.788;23.710;2023-04-29T12:05:47;30.63;;;16.77;;
21876;SDS011;11103;43.788;23.710;2023-04-29T12:08:18;33.47;;;18.77;;
21876;SDS011;11103;43.788;23.710;2023-04-29T12:10:47;29.60;;;17.57;;
21876;SDS011;11103;43.788;23.710;2023-04-29T12:13:13;35.50;;;18.93;;
21876;SDS011;11103;43.788;23.710;2023-04-29T12:15:40;32.63;;;19.37;;
21876;SDS011;11103;43.788;23.710;2023-04-29T12:18:06;34.43;;;19.07;;
21876;SDS011;11103;43.788;23.710;2023-04-29T12:20:32;32.17;;;19.07;;
21876;SDS011;11103;43.788;23.710;2023-04-29T12:23:10;44.53;;;19.70;;
21876;SDS011;11103;43.788;23.710;2023-04-29T12:25:39;27.70;;;17.00;;
21876;SDS011;11103;43.788;23.710;2023-04-29T12:28:11;26.77;;;16.03;;
21876;SDS011;11103;43.788;23.710;2023-04-29T12:30:37;28.63;;;15.83;;
21876;SDS011;11103;43.788;23.710;2023-04-29T12:33:03;29.87;;;15.67;;
21876;SDS011;11103;43.788;23.710;2023-04-29T12:35:28;25.57;;;15.53;;
21876;SDS011;11103;43.788;23.710;2023-04-29T12:37:56;21.37;;;13.33;;
21876;SDS011;11103;43.788;23.710;2023-04-29T12:40:23;21.73;;;13.57;;
21876;SDS011;11103;43.788;23.710;2023-04-29T12:42:48;29.93;;;16.37;;
21876;SDS011;11103;43.788;23.710;2023-04-29T12:45:30;31.37;;;19.37;;
21876;SDS011;11103;43.788;23.710;2023-04-29T12:47:57;38.07;;;22.80;;
21876;SDS011;11103;43.788;23.710;2023-04-29T12:53:16;28.23;;;19.47;;
21876;SDS011;11103;43.788;23.710;2023-04-29T12:55:41;31.40;;;18.90;;
21876;SDS011;11103;43.788;23.710;2023-04-29T12:58:07;36.23;;;19.20;;
21876;SDS011;11103;43.788;23.710;2023-04-29T13:00:33;28.60;;;17.53;;
21876;SDS011;11103;43.788;23.710;2023-04-29T13:02:59;25.57;;;15.60;;
21876;SDS011;11103;43.788;23.710;2023-04-29T13:05:25;23.77;;;15.33;;
21876;SDS011;11103;43.788;23.710;2023-04-29T13:07:51;28.53;;;16.90;;
21876;SDS011;11103;43.788;23.710;2023-04-29T13:10:16;39.97;;;27.27;;
21876;SDS011;11103;43.788;23.710;2023-04-29T13:12:42;32.27;;;19.93;;
21876;SDS011;11103;43.788;23.710;2023-04-29T13:15:07;33.00;;;19.03;;
21876;SDS011;11103;43.788;23.710;2023-04-29T13:17:34;50.77;;;32.00;;
21876;SDS011;11103;43.788;23.710;2023-04-29T13:20:01;30.33;;;19.63;;
21876;SDS011;11103;43.788;23.710;2023-04-29T13:22:30;25.87;;;18.43;;
21876;SDS011;11103;43.788;23.710;2023-04-29T13:24:55;27.80;;;17.07;;
21876;SDS011;11103;43.788;23.710;2023-04-29T13:27:21;24.70;;;15.67;;
21876;SDS011;11103;43.788;23.710;2023-04-29T13:29:46;23.67;;;15.60;;
21876;SDS011;11103;43.788;23.710;2023-04-29T13:32:11;29.77;;;16.27;;
21876;SDS011;11103;43.788;23.710;2023-04-29T13:34:37;25.83;;;16.37;;
21876;SDS011;11103;43.788;23.710;2023-04-29T13:37:02;25.90;;;16.83;;
21876;SDS011;11103;43.788;23.710;2023-04-29T13:39:27;28.43;;;17.00;;
21876;SDS011;11103;43.788;23.710;2023-04-29T13:41:53;30.50;;;18.23;;
21876;SDS011;11103;43.788;23.710;2023-04-29T13:44:18;30.57;;;17.63;;
21876;SDS011;11103;43.788;23.710;2023-04-29T13:46:44;30.47;;;16.73;;
21876;SDS011;11103;43.788;23.710;2023-04-29T13:49:10;31.43;;;17.90;;
21876;SDS011;11103;43.788;23.710;2023-04-29T13:51:36;25.63;;;18.17;;
21876;SDS011;11103;43.788;23.710;2023-04-29T13:54:01;27.00;;;17.93;;
21876;SDS011;11103;43.788;23.710;2023-04-29T13:56:26;27.67;;;18.43;;
21876;SDS011;11103;43.788;23.710;2023-04-29T13:58:52;29.00;;;18.50;;
21876;SDS011;11103;43.788;23.710;2023-04-29T14:01:17;36.70;;;18.43;;
21876;SDS011;11103;43.788;23.710;2023-04-29T14:03:42;30.37;;;17.23;;
21876;SDS011;11103;43.788;23.710;2023-04-29T14:06:08;30.40;;;16.93;;
21876;SDS011;11103;43.788;23.710;2023-04-29T14:08:34;26.33;;;15.90;;
21876;SDS011;11103;43.788;23.710;2023-04-29T14:10:59;29.97;;;16.57;;
21876;SDS011;11103;43.788;23.710;2023-04-29T14:13:25;25.30;;;16.90;;
21876;SDS011;11103;43.788;23.710;2023-04-29T14:15:50;21.60;;;14.97;;
21876;SDS011;11103;43.788;23.710;2023-04-29T14:18:16;23.73;;;15.83;;
21876;SDS011;11103;43.788;23.710;2023-04-29T14:20:41;27.47;;;15.47;;
21876;SDS011;11103;43.788;23.710;2023-04-29T14:23:06;23.43;;;13.87;;
21876;SDS011;11103;43.788;23.710;2023-04-29T14:25:32;22.70;;;14.23;;
21876;SDS011;11103;43.788;23.710;2023-04-29T14:27:57;28.87;;;15.47;;
21876;SDS011;11103;43.788;23.710;2023-04-29T14:30:23;25.70;;;15.97;;
21876;SDS011;11103;43.788;23.710;2023-04-29T14:32:48;28.97;;;16.13;;
21876;SDS011;11103;43.788;23.710;2023-04-29T14:35:14;23.30;;;16.00;;
21876;SDS011;11103;43.788;23.710;2023-04-29T14:37:40;25.20;;;16.23;;
21876;SDS011;11103;43.788;23.710;2023-04-29T14:40:05;21.70;;;14.37;;
21876;SDS011;11103;43.788;23.710;2023-04-29T14:42:31;20.67;;;14.63;;
21876;SDS011;11103;43.788;23.710;2023-04-29T14:44:57;22.77;;;14.83;;
21876;SDS011;11103;43.788;23.710;2023-04-29T14:47:22;23.63;;;14.37;;